Time;durP1;ratioP1;P1;durP2;ratioP2;P2;SDS_P1;SDS_P2;PMS_P1;PMS_P2;Temp;Humidity;BMP_temperature;BMP_pressure;BME280_temperature;BME280_humidity;BME280_pressure;Samples;Min_cycle;Max_cycle;Signal;HPM_P1;HPM_P2
2022/09/09 00:01:44;;;;;;;7.15;4.07;;;16.70;75.70;;;;;;4959070;28;20045;-70
2022/09/09 00:04:15;;;;;;;7.43;3.58;;;16.70;75.70;;;;;;4959085;28;20053;-70
2022/09/09 00:06:46;;;;;;;6.43;3.67;;;16.70;75.40;;;;;;4992902;28;20051;-70
2022/09/09 00:09:17;;;;;;;5.78;3.70;;;16.70;75.30;;;;;;4974944;28;20262;-70
2022/09/09 00:11:48;;;;;;;6.80;3.75;;;16.60;75.30;;;;;;4992744;28;20213;-70
2022/09/09 00:14:24;;;;;;;9.02;3.58;;;16.60;75.30;;;;;;4992608;28;20076;-70
2022/09/09 00:16:56;;;;;;;5.45;3.30;;;16.60;75.30;;;;;;4992864;28;20055;-70
2022/09/09 00:19:29;;;;;;;6.97;3.70;;;16.60;75.30;;;;;;4992018;28;20133;-70
2022/09/09 00:22:08;;;;;;;6.30;3.47;;;16.60;75.30;;;;;;4992614;28;20267;-70
2022/09/09 00:24:42;;;;;;;7.22;3.30;;;16.60;75.20;;;;;;4974960;28;20145;-70
2022/09/09 00:27:17;;;;;;;6.65;3.00;;;16.60;75.20;;;;;;4992178;28;20055;-70
2022/09/09 00:29:48;;;;;;;4.95;2.53;;;16.60;75.20;;;;;;4958378;28;20092;-70
2022/09/09 00:32:17;;;;;;;5.63;2.63;;;16.50;75.30;;;;;;4974935;28;20073;-70
2022/09/09 00:34:51;;;;;;;5.45;2.78;;;16.50;75.30;;;;;;4974722;28;20275;-70
2022/09/09 00:37:20;;;;;;;5.00;2.72;;;16.50;75.30;;;;;;4974817;28;20047;-70
2022/09/09 00:39:49;;;;;;;4.93;2.72;;;16.40;75.40;;;;;;4990733;28;20138;-70
2022/09/09 00:42:19;;;;;;;4.72;2.67;;;16.40;75.60;;;;;;4974554;28;20051;-70
2022/09/09 00:44:53;;;;;;;6.10;2.77;;;16.40;75.80;;;;;;4992135;28;20055;-70
2022/09/09 00:47:42;;;;;;;4.72;2.67;;;16.30;75.90;;;;;;4958715;28;20266;-70
2022/09/09 00:50:24;;;;;;;4.97;2.95;;;16.30;75.80;;;;;;4974376;28;20109;-70
2022/09/09 00:53:02;;;;;;;5.50;3.20;;;16.30;76.00;;;;;;4991995;28;20521;-70
2022/09/09 00:55:40;;;;;;;5.70;3.35;;;16.20;76.00;;;;;;4958469;28;20118;-70
2022/09/09 00:58:09;;;;;;;7.07;2.90;;;16.20;75.90;;;;;;4991835;28;20055;-70
2022/09/09 01:00:44;;;;;;;5.20;2.88;;;16.20;76.00;;;;;;4992069;28;20665;-70
2022/09/09 01:03:26;;;;;;;8.15;3.17;;;16.20;75.90;;;;;;4973987;28;20054;-70
2022/09/09 01:06:06;;;;;;;6.47;3.55;;;16.20;75.80;;;;;;4974217;28;20061;-70
2022/09/09 01:08:48;;;;;;;6.00;3.10;;;16.20;75.80;;;;;;4974451;28;20521;-70
2022/09/09 01:11:22;;;;;;;7.37;3.30;;;16.20;75.90;;;;;;4974310;28;20062;-71
2022/09/09 01:13:58;;;;;;;8.48;3.75;;;16.20;76.10;;;;;;4974392;28;20274;-70
2022/09/09 01:16:26;;;;;;;8.43;3.58;;;16.20;76.20;;;;;;4974075;28;20056;-70
2022/09/09 01:18:55;;;;;;;6.78;3.67;;;16.10;76.30;;;;;;4973559;28;20086;-70
2022/09/09 01:21:33;;;;;;;8.27;4.15;;;16.10;76.60;;;;;;4974230;28;20502;-70
2022/09/09 01:24:20;;;;;;;7.07;3.83;;;16.00;76.90;;;;;;4974141;28;20054;-70
2022/09/09 01:27:01;;;;;;;6.47;3.78;;;16.00;77.00;;;;;;4974371;28;20386;-70
2022/09/09 01:29:29;;;;;;;6.93;3.88;;;16.00;77.30;;;;;;4973550;28;20513;-70
2022/09/09 01:31:58;;;;;;;9.38;4.05;;;15.90;77.60;;;;;;4974208;28;20106;-70
2022/09/09 01:34:29;;;;;;;7.47;4.05;;;15.80;77.90;;;;;;4973508;28;20051;-70
2022/09/09 01:37:02;;;;;;;8.07;4.10;;;15.80;78.30;;;;;;4957747;28;20053;-69
2022/09/09 01:39:29;;;;;;;6.50;3.85;;;15.80;78.60;;;;;;4973605;28;20262;-70
2022/09/09 01:42:07;;;;;;;8.20;3.70;;;15.80;78.90;;;;;;4957714;28;20046;-70
2022/09/09 01:44:36;;;;;;;9.55;4.00;;;15.70;79.40;;;;;;4974025;28;20978;-70
2022/09/09 01:47:05;;;;;;;9.75;4.50;;;15.70;79.70;;;;;;4957400;28;20138;-70
2022/09/09 01:49:32;;;;;;;7.20;4.17;;;15.70;80.00;;;;;;4973539;28;20051;-70
2022/09/09 01:52:04;;;;;;;8.85;4.03;;;15.60;80.20;;;;;;4973579;28;20271;-70
2022/09/09 01:54:36;;;;;;;8.68;3.60;;;15.60;80.30;;;;;;4973292;28;20054;-70
2022/09/09 01:57:21;;;;;;;8.73;3.67;;;15.60;80.40;;;;;;4956997;28;20530;-70
2022/09/09 02:00:02;;;;;;;8.50;3.92;;;15.60;80.60;;;;;;4957304;28;20058;-70
2022/09/09 02:02:49;;;;;;;7.20;3.10;;;15.60;81.00;;;;;;4973194;28;20481;-70
2022/09/09 02:05:32;;;;;;;7.72;3.38;;;15.60;80.90;;;;;;4973653;28;20713;-70
2022/09/09 02:08:06;;;;;;;6.57;3.47;;;15.60;81.10;;;;;;4957418;28;20050;-70
2022/09/09 02:10:48;;;;;;;9.50;3.45;;;15.60;81.20;;;;;;4973098;28;20916;-70
2022/09/09 02:13:32;;;;;;;8.77;3.55;;;15.60;81.20;;;;;;4957372;28;20043;-70
2022/09/09 02:16:05;;;;;;;6.87;3.30;;;15.60;81.60;;;;;;4957127;28;20107;-70
2022/09/09 02:18:37;;;;;;;6.75;3.30;;;15.60;81.70;;;;;;4957178;28;20279;-70
2022/09/09 02:21:07;;;;;;;8.05;3.42;;;15.60;81.80;;;;;;4957000;28;20598;-70
2022/09/09 02:23:35;;;;;;;7.10;3.30;;;15.60;81.90;;;;;;4973538;28;20054;-70
2022/09/09 02:26:07;;;;;;;6.07;3.50;;;15.60;82.10;;;;;;4957215;28;20116;-70
2022/09/09 02:28:38;;;;;;;6.90;3.37;;;15.60;82.20;;;;;;4957179;28;20067;-70
2022/09/09 02:31:06;;;;;;;7.80;3.63;;;15.60;82.40;;;;;;4956912;28;20279;-70
2022/09/09 02:33:42;;;;;;;7.95;3.25;;;15.60;82.50;;;;;;4989234;28;20066;-70
2022/09/09 02:36:11;;;;;;;7.57;3.25;;;15.60;82.60;;;;;;4973158;28;20497;-70
2022/09/09 02:38:45;;;;;;;6.78;3.08;;;15.60;82.70;;;;;;4973151;28;21022;-70
2022/09/09 02:41:15;;;;;;;9.50;3.07;;;15.60;82.70;;;;;;4957351;28;20105;-70
2022/09/09 02:43:43;;;;;;;7.43;3.10;;;15.60;82.90;;;;;;4956987;28;20270;-71
2022/09/09 02:46:25;;;;;;;7.03;3.10;;;15.60;83.00;;;;;;4957156;28;20537;-70
2022/09/09 02:49:00;;;;;;;8.02;3.20;;;15.60;83.00;;;;;;4957063;28;20051;-70
2022/09/09 02:51:41;;;;;;;6.10;3.08;;;15.60;83.10;;;;;;4976312;28;20055;-70
2022/09/09 02:54:17;;;;;;;6.10;2.80;;;15.60;83.30;;;;;;4991870;28;20050;-71
2022/09/09 02:56:50;;;;;;;7.55;3.08;;;15.60;83.20;;;;;;4993301;28;20346;-70
2022/09/09 02:59:19;;;;;;;6.00;2.97;;;15.60;83.30;;;;;;4994699;28;20054;-70
2022/09/09 03:01:46;;;;;;;7.57;2.90;;;15.60;83.30;;;;;;4995360;28;20137;-71
2022/09/09 03:04:14;;;;;;;7.18;3.40;;;15.60;83.40;;;;;;4986933;28;20043;-70
2022/09/09 03:06:41;;;;;;;6.63;3.00;;;15.60;83.40;;;;;;4984356;28;20043;-70
2022/09/09 03:09:18;;;;;;;6.05;2.80;;;15.60;83.50;;;;;;4992624;28;20297;-71
2022/09/09 03:11:45;;;;;;;6.28;3.03;;;15.60;83.50;;;;;;4995325;28;20054;-71
2022/09/09 03:14:14;;;;;;;6.25;3.10;;;15.60;83.50;;;;;;5011823;28;20101;-71
2022/09/09 03:16:43;;;;;;;5.43;2.65;;;15.60;83.50;;;;;;4993681;28;20053;-71
2022/09/09 03:19:11;;;;;;;6.37;2.77;;;15.60;83.70;;;;;;4993524;28;20062;-70
2022/09/09 03:21:38;;;;;;;7.68;2.75;;;15.60;83.60;;;;;;4993876;28;20357;-70
2022/09/09 03:24:06;;;;;;;5.70;2.90;;;15.60;83.60;;;;;;4993961;28;20046;-71
2022/09/09 03:26:33;;;;;;;5.88;2.88;;;15.60;83.60;;;;;;4993659;28;20054;-71
2022/09/09 03:29:01;;;;;;;5.90;2.72;;;15.60;83.50;;;;;;4993325;28;20061;-70
2022/09/09 03:31:29;;;;;;;8.10;2.63;;;15.60;83.50;;;;;;4995108;28;20145;-70
2022/09/09 03:33:59;;;;;;;6.40;3.35;;;15.60;83.50;;;;;;4995129;28;20256;-70
2022/09/09 03:36:29;;;;;;;6.45;3.20;;;15.60;83.40;;;;;;5011626;28;20578;-70
2022/09/09 03:38:56;;;;;;;6.82;3.10;;;15.60;83.50;;;;;;4995242;28;20854;-70
2022/09/09 03:41:27;;;;;;;7.05;3.30;;;15.60;83.50;;;;;;4994884;28;20134;-70
2022/09/09 03:43:55;;;;;;;7.43;3.57;;;15.60;83.40;;;;;;4995082;28;20057;-70
2022/09/09 03:46:25;;;;;;;6.97;3.50;;;15.60;83.50;;;;;;4978741;28;20254;-70
2022/09/09 03:48:53;;;;;;;8.02;3.78;;;15.60;83.40;;;;;;4994951;28;20054;-70
2022/09/09 03:51:22;;;;;;;9.15;3.83;;;15.60;83.50;;;;;;4995231;28;20046;-70
2022/09/09 03:53:49;;;;;;;7.40;3.72;;;15.50;83.60;;;;;;4994807;28;20508;-71
2022/09/09 03:56:16;;;;;;;8.07;4.40;;;15.50;83.60;;;;;;4994668;28;20122;-70
2022/09/09 03:58:43;;;;;;;7.65;3.78;;;15.50;83.60;;;;;;4994840;28;20373;-70
2022/09/09 04:01:13;;;;;;;8.52;4.15;;;15.50;83.60;;;;;;4993494;28;20053;-70
2022/09/09 04:03:42;;;;;;;7.88;4.32;;;15.50;83.70;;;;;;5011337;28;20137;-70
2022/09/09 04:06:11;;;;;;;7.88;3.60;;;15.50;83.70;;;;;;5011142;28;20132;-70
2022/09/09 04:08:40;;;;;;;6.73;3.60;;;15.50;83.80;;;;;;4994573;28;20105;-70
2022/09/09 04:11:08;;;;;;;5.72;3.45;;;15.50;83.70;;;;;;5011209;28;20336;-71
2022/09/09 04:13:38;;;;;;;6.45;3.72;;;15.50;83.70;;;;;;4994702;28;20042;-70
2022/09/09 04:16:08;;;;;;;7.22;3.75;;;15.40;83.80;;;;;;5011359;28;20050;-70
2022/09/09 04:18:36;;;;;;;8.35;3.90;;;15.40;83.80;;;;;;4994290;28;20058;-71
2022/09/09 04:21:05;;;;;;;7.47;3.70;;;15.50;83.80;;;;;;4994025;28;20050;-70
2022/09/09 04:23:34;;;;;;;10.63;4.05;;;15.40;83.90;;;;;;4978387;28;20746;-70
2022/09/09 04:26:04;;;;;;;7.28;4.13;;;15.40;83.90;;;;;;4978061;28;20066;-70
2022/09/09 04:28:35;;;;;;;10.27;4.40;;;15.40;83.90;;;;;;4994704;28;20082;-70
2022/09/09 04:31:06;;;;;;;6.57;4.18;;;15.40;84.00;;;;;;5010471;28;20050;-70
2022/09/09 04:33:34;;;;;;;8.83;4.63;;;15.40;84.10;;;;;;4993986;28;20813;-70
2022/09/09 04:36:01;;;;;;;7.63;4.68;;;15.40;84.10;;;;;;5010283;28;20288;-70
2022/09/09 04:38:29;;;;;;;9.63;4.90;;;15.40;84.10;;;;;;4994115;28;20050;-70
2022/09/09 04:40:56;;;;;;;7.88;4.53;;;15.40;84.10;;;;;;4993800;28;20049;-70
2022/09/09 04:43:25;;;;;;;10.25;5.55;;;15.30;84.10;;;;;;5010574;28;20059;-70
2022/09/09 04:45:53;;;;;;;8.70;4.90;;;15.30;84.10;;;;;;4994012;28;20038;-70
2022/09/09 04:48:24;;;;;;;8.02;4.95;;;15.30;84.10;;;;;;4994022;28;20385;-70
2022/09/09 04:50:59;;;;;;;10.52;5.10;;;15.30;84.10;;;;;;4993615;28;20058;-70
2022/09/09 04:53:26;;;;;;;9.00;5.10;;;15.30;84.10;;;;;;4993965;28;20087;-70
2022/09/09 04:55:54;;;;;;;8.38;4.68;;;15.30;84.10;;;;;;5010197;28;20211;-70
2022/09/09 04:58:23;;;;;;;9.30;5.00;;;15.30;84.00;;;;;;4994230;28;20140;-70
2022/09/09 05:00:52;;;;;;;8.10;4.35;;;15.30;84.10;;;;;;5009777;28;20258;-70
2022/09/09 05:03:20;;;;;;;9.07;5.03;;;15.30;84.10;;;;;;5010413;28;20055;-70
2022/09/09 05:05:47;;;;;;;8.38;4.50;;;15.30;84.00;;;;;;5010036;28;20046;-70
2022/09/09 05:08:14;;;;;;;8.82;4.70;;;15.20;84.00;;;;;;4993525;28;20042;-70
2022/09/09 05:10:42;;;;;;;8.07;4.50;;;15.20;84.00;;;;;;5009887;28;20054;-70
2022/09/09 05:13:09;;;;;;;7.68;4.55;;;15.20;83.90;;;;;;5009521;28;20301;-70
2022/09/09 05:15:37;;;;;;;8.27;4.75;;;15.20;84.00;;;;;;4993693;28;20117;-70
2022/09/09 05:18:05;;;;;;;7.20;4.32;;;15.20;84.00;;;;;;5009760;28;20046;-70
2022/09/09 05:20:33;;;;;;;7.90;4.53;;;15.20;84.00;;;;;;5009665;28;20137;-70
2022/09/09 05:23:01;;;;;;;8.13;4.23;;;15.20;83.90;;;;;;4993433;28;20142;-70
2022/09/09 05:25:31;;;;;;;8.10;4.43;;;15.20;84.00;;;;;;4993373;28;20863;-70
2022/09/09 05:27:59;;;;;;;8.57;4.53;;;15.10;83.90;;;;;;5010990;28;20051;-70
2022/09/09 05:30:26;;;;;;;8.40;4.85;;;15.10;83.90;;;;;;4993369;28;20050;-70
2022/09/09 05:32:56;;;;;;;6.95;4.35;;;15.10;83.90;;;;;;5001258;28;20432;-70
2022/09/09 05:35:25;;;;;;;9.27;5.00;;;15.10;83.80;;;;;;4984367;28;20540;-70
2022/09/09 05:37:52;;;;;;;7.40;4.53;;;15.00;83.70;;;;;;4976958;28;20325;-70
2022/09/09 05:40:21;;;;;;;7.93;4.30;;;15.00;83.70;;;;;;4976686;28;20046;-70
2022/09/09 05:42:48;;;;;;;8.93;4.93;;;15.00;83.70;;;;;;4993799;28;20050;-70
2022/09/09 05:45:15;;;;;;;8.77;4.90;;;15.00;83.70;;;;;;4993463;28;20082;-70
2022/09/09 05:47:42;;;;;;;7.10;4.10;;;15.00;83.70;;;;;;5009887;28;20137;-70
2022/09/09 05:50:12;;;;;;;8.02;4.22;;;15.00;83.70;;;;;;4977277;28;20369;-70
2022/09/09 05:52:41;;;;;;;7.68;4.10;;;15.00;83.80;;;;;;5010759;28;20062;-70
2022/09/09 05:55:09;;;;;;;9.00;4.50;;;15.00;83.70;;;;;;4993251;28;20547;-70
2022/09/09 05:57:36;;;;;;;7.88;4.45;;;15.00;83.90;;;;;;4977017;28;20042;-70
2022/09/09 06:00:04;;;;;;;8.30;4.60;;;15.00;84.00;;;;;;5009295;28;20073;-70
2022/09/09 06:02:41;;;;;;;8.25;4.47;;;15.00;84.10;;;;;;5010904;28;20397;-70
2022/09/09 06:05:10;;;;;;;9.20;4.72;;;15.00;84.10;;;;;;4976667;28;20045;-71
2022/09/09 06:07:41;;;;;;;8.43;4.68;;;15.00;84.10;;;;;;4992472;28;21080;-70
2022/09/09 06:10:13;;;;;;;9.25;4.68;;;15.00;84.10;;;;;;4992199;28;20078;-70
2022/09/09 06:12:40;;;;;;;7.47;4.30;;;15.00;84.20;;;;;;4992163;28;20061;-69
2022/09/09 06:15:08;;;;;;;6.50;3.83;;;15.00;84.20;;;;;;4991598;28;20258;-69
2022/09/09 06:17:36;;;;;;;8.50;4.20;;;15.00;84.30;;;;;;4991895;28;20148;-70
2022/09/09 06:20:04;;;;;;;8.15;4.40;;;15.00;84.40;;;;;;4997752;28;20050;-69
2022/09/09 06:22:32;;;;;;;9.65;4.57;;;15.00;84.50;;;;;;4992068;28;20101;-70
2022/09/09 06:25:00;;;;;;;9.03;4.60;;;15.00;84.50;;;;;;5001955;28;20788;-71
2022/09/09 06:27:29;;;;;;;7.55;4.28;;;15.00;84.50;;;;;;4978936;28;20347;-70
2022/09/09 06:29:56;;;;;;;6.70;4.22;;;15.00;84.60;;;;;;5003212;28;20953;-70
2022/09/09 06:32:23;;;;;;;8.75;4.80;;;15.10;84.70;;;;;;4978936;28;20047;-70
2022/09/09 06:34:51;;;;;;;7.43;4.47;;;15.10;84.70;;;;;;4994912;28;20078;-70
2022/09/09 06:37:18;;;;;;;8.67;4.67;;;15.10;84.70;;;;;;5001949;28;20144;-70
2022/09/09 06:39:49;;;;;;;7.20;3.90;;;15.10;84.70;;;;;;4994612;28;21068;-70
2022/09/09 06:42:16;;;;;;;7.90;3.97;;;15.10;84.70;;;;;;4978929;28;20050;-70
2022/09/09 06:44:53;;;;;;;10.27;4.40;;;15.10;84.80;;;;;;4992271;28;20047;-70
2022/09/09 06:47:40;;;;;;;8.38;4.05;;;15.20;84.80;;;;;;5010638;28;20544;-70
2022/09/09 06:50:10;;;;;;;8.00;3.97;;;15.20;84.90;;;;;;4978319;28;20053;-69
2022/09/09 06:52:39;;;;;;;8.55;4.40;;;15.20;84.90;;;;;;4992927;28;20267;-70
2022/09/09 06:55:09;;;;;;;7.90;4.30;;;15.20;84.80;;;;;;5000836;28;20058;-69
2022/09/09 06:57:37;;;;;;;7.07;4.10;;;15.20;84.70;;;;;;4993969;28;20793;-69
2022/09/09 07:00:08;;;;;;;7.10;3.95;;;15.20;84.70;;;;;;4994023;28;20058;-69
2022/09/09 07:02:39;;;;;;;9.73;4.20;;;15.30;84.80;;;;;;4987268;28;20524;-69
2022/09/09 07:05:08;;;;;;;7.47;4.28;;;15.30;84.80;;;;;;4978322;28;20818;-69
2022/09/09 07:07:36;;;;;;;9.02;4.30;;;15.30;84.90;;;;;;4977269;28;20058;-69
2022/09/09 07:10:04;;;;;;;8.00;4.30;;;15.30;85.00;;;;;;4978371;28;20038;-69
2022/09/09 07:12:32;;;;;;;7.50;4.50;;;15.30;85.00;;;;;;4978918;28;20042;-70
2022/09/09 07:15:00;;;;;;;8.30;4.77;;;15.40;85.10;;;;;;5011533;28;20444;-69
2022/09/09 07:17:29;;;;;;;7.55;4.13;;;15.40;85.00;;;;;;4995127;28;20365;-70
2022/09/09 07:19:57;;;;;;;7.97;3.80;;;15.40;85.10;;;;;;4994764;28;21131;-70
2022/09/09 07:22:24;;;;;;;7.53;4.00;;;15.50;85.20;;;;;;4994893;28;20290;-69
2022/09/09 07:24:52;;;;;;;8.65;3.85;;;15.50;85.00;;;;;;4978880;28;20061;-70
2022/09/09 07:27:19;;;;;;;10.57;4.30;;;15.50;85.00;;;;;;4995044;28;20046;-70
2022/09/09 07:29:48;;;;;;;6.93;3.47;;;15.50;85.00;;;;;;4978752;28;20268;-69
2022/09/09 07:32:16;;;;;;;9.00;4.40;;;15.50;85.20;;;;;;4995460;28;20050;-69
2022/09/09 07:34:46;;;;;;;7.38;4.07;;;15.50;85.20;;;;;;4994550;28;20050;-69
2022/09/09 07:37:13;;;;;;;7.82;4.40;;;15.60;85.30;;;;;;4978219;28;20132;-69
2022/09/09 07:39:43;;;;;;;8.40;3.93;;;15.60;85.10;;;;;;5002055;28;20140;-70
2022/09/09 07:42:11;;;;;;;8.88;4.20;;;15.60;85.20;;;;;;5002368;28;20741;-70
2022/09/09 07:44:39;;;;;;;7.43;3.80;;;15.70;85.40;;;;;;4994026;28;20061;-70
2022/09/09 07:47:12;;;;;;;9.98;4.60;;;15.70;85.30;;;;;;4998393;28;20595;-70
2022/09/09 07:49:46;;;;;;;7.22;4.20;;;15.80;85.30;;;;;;4977635;28;20888;-70
2022/09/09 07:52:14;;;;;;;8.73;4.73;;;15.80;85.30;;;;;;4977544;28;20050;-71
2022/09/09 07:54:45;;;;;;;8.82;4.63;;;15.80;85.40;;;;;;4993894;28;20250;-70
2022/09/09 07:57:15;;;;;;;7.63;4.82;;;15.90;85.60;;;;;;4977612;28;20046;-70
2022/09/09 07:59:43;;;;;;;10.30;4.75;;;16.00;85.60;;;;;;4993578;28;20050;-70
2022/09/09 08:02:10;;;;;;;8.60;4.65;;;16.00;85.60;;;;;;4993264;28;20412;-70
2022/09/09 08:04:38;;;;;;;9.17;4.37;;;16.10;85.40;;;;;;5009985;28;20624;-70
2022/09/09 08:07:06;;;;;;;11.63;4.57;;;16.10;85.30;;;;;;4976908;28;20756;-70
2022/09/09 08:09:40;;;;;;;7.65;4.40;;;16.10;85.20;;;;;;4993188;28;20053;-70
2022/09/09 08:12:15;;;;;;;9.55;4.30;;;16.20;85.30;;;;;;4993779;28;20096;-71
2022/09/09 08:14:41;;;;;;;9.30;4.68;;;16.30;85.30;;;;;;4977367;28;20051;-71
2022/09/09 08:17:09;;;;;;;9.27;4.93;;;16.40;85.10;;;;;;4993409;28;20061;-71
2022/09/09 08:19:36;;;;;;;9.85;4.43;;;16.40;84.90;;;;;;4979027;28;20259;-70
2022/09/09 08:22:07;;;;;;;9.75;4.88;;;16.40;84.80;;;;;;4974391;28;20047;-71
2022/09/09 08:24:36;;;;;;;9.02;4.82;;;16.40;84.80;;;;;;4974631;28;20086;-70
2022/09/09 08:27:03;;;;;;;9.50;4.57;;;16.40;84.70;;;;;;4993505;28;20101;-71
2022/09/09 08:29:30;;;;;;;8.00;4.40;;;16.50;84.60;;;;;;4992383;28;20497;-71
2022/09/09 08:31:59;;;;;;;8.75;4.53;;;16.50;84.50;;;;;;4993611;28;20326;-71
2022/09/09 08:34:30;;;;;;;6.93;4.50;;;16.50;84.30;;;;;;4976837;28;20532;-71
2022/09/09 08:36:58;;;;;;;8.15;4.65;;;16.50;84.30;;;;;;4975075;28;20058;-72
2022/09/09 08:39:34;;;;;;;9.80;4.57;;;16.50;84.30;;;;;;5008926;28;20057;-71
2022/09/09 08:42:17;;;;;;;11.00;4.37;;;16.60;84.40;;;;;;4993119;28;20050;-71
2022/09/09 08:45:15;;;;;;;8.70;4.32;;;16.60;84.50;;;;;;5009620;28;20262;-71
2022/09/09 08:47:54;;;;;;;10.60;4.32;;;16.70;84.40;;;;;;5008796;28;21013;-71
2022/09/09 08:50:26;;;;;;;10.45;4.43;;;16.70;84.50;;;;;;4993029;28;20051;-71
2022/09/09 08:53:03;;;;;;;9.30;4.15;;;16.70;84.30;;;;;;5009760;28;20061;-70
2022/09/09 08:55:42;;;;;;;8.03;3.73;;;16.80;84.30;;;;;;4999170;28;20086;-70
2022/09/09 08:58:15;;;;;;;9.75;4.10;;;16.90;84.20;;;;;;5012663;28;20277;-71
2022/09/09 09:01:01;;;;;;;7.18;3.53;;;16.90;84.30;;;;;;5029108;28;20045;-70
2022/09/09 09:03:39;;;;;;;8.75;3.70;;;17.00;84.10;;;;;;5022272;28;20042;-71
2022/09/09 09:06:22;;;;;;;7.45;3.22;;;17.00;84.10;;;;;;4999558;28;20050;-72
2022/09/09 09:09:00;;;;;;;8.90;3.70;;;17.00;84.00;;;;;;4994776;28;20556;-71
2022/09/09 09:11:36;;;;;;;9.57;2.85;;;17.00;84.00;;;;;;4989004;28;20394;-72
2022/09/09 09:14:10;;;;;;;7.78;3.28;;;17.20;83.90;;;;;;4992230;28;20112;-71
2022/09/09 09:16:45;;;;;;;10.07;3.10;;;17.20;83.70;;;;;;4992069;28;20043;-72
2022/09/09 09:19:15;;;;;;;7.32;2.90;;;17.20;83.50;;;;;;4981742;28;20050;-71
2022/09/09 09:21:44;;;;;;;7.53;2.60;;;17.20;83.30;;;;;;5008364;28;20133;-71
2022/09/09 09:24:19;;;;;;;9.70;2.78;;;17.30;83.00;;;;;;4975650;28;20290;-71
2022/09/09 09:26:49;;;;;;;8.07;2.70;;;17.30;83.00;;;;;;4996862;28;20098;-71
2022/09/09 09:29:19;;;;;;;9.73;2.70;;;17.40;83.00;;;;;;4973065;28;20049;-71
2022/09/09 09:31:52;;;;;;;8.73;2.60;;;17.50;82.40;;;;;;4996846;28;20054;-71
2022/09/09 09:34:19;;;;;;;7.67;2.60;;;17.50;82.30;;;;;;5000689;28;20054;-71
2022/09/09 09:36:54;;;;;;;9.05;3.00;;;17.50;82.40;;;;;;4976284;28;20259;-71
2022/09/09 09:39:28;;;;;;;7.13;2.53;;;17.60;81.80;;;;;;5008675;28;20050;-71
2022/09/09 09:42:10;;;;;;;8.60;2.50;;;17.60;81.50;;;;;;4976267;28;20137;-71
2022/09/09 09:44:37;;;;;;;8.45;2.63;;;17.70;81.80;;;;;;4992316;28;20501;-71
2022/09/09 09:47:14;;;;;;;10.30;2.70;;;17.80;81.90;;;;;;5009399;28;20062;-71
2022/09/09 09:49:53;;;;;;;8.65;3.08;;;17.80;81.80;;;;;;4992313;28;20273;-71
2022/09/09 09:52:24;;;;;;;8.07;2.40;;;17.90;80.90;;;;;;4992351;28;20102;-71
2022/09/09 09:54:53;;;;;;;7.32;1.90;;;17.90;80.50;;;;;;4992689;28;20054;-71
2022/09/09 09:57:28;;;;;;;9.07;2.28;;;17.90;80.30;;;;;;4992392;28;20047;-71
2022/09/09 10:00:07;;;;;;;8.50;2.40;;;17.90;80.00;;;;;;4994233;28;20046;-71
2022/09/09 10:02:43;;;;;;;7.03;2.22;;;18.00;78.80;;;;;;4995603;28;20270;-71
2022/09/09 10:05:18;;;;;;;6.68;2.13;;;18.00;78.30;;;;;;5012760;28;20050;-71
2022/09/09 10:08:02;;;;;;;9.18;2.40;;;18.00;77.90;;;;;;4996380;28;20050;-71
2022/09/09 10:10:48;;;;;;;7.50;2.03;;;18.00;77.30;;;;;;4995482;28;20046;-71
2022/09/09 10:13:25;;;;;;;5.57;1.77;;;18.00;77.70;;;;;;5012874;28;20058;-71
2022/09/09 10:16:03;;;;;;;6.97;1.80;;;18.00;77.60;;;;;;4999979;28;20251;-71
2022/09/09 10:18:56;;;;;;;5.82;1.80;;;18.00;77.80;;;;;;5007211;28;20851;-71
2022/09/09 10:21:39;;;;;;;6.60;1.70;;;18.10;77.50;;;;;;4974984;28;20059;-71
2022/09/09 10:24:32;;;;;;;6.75;1.92;;;18.10;76.60;;;;;;4977243;28;20062;-71
2022/09/09 10:27:06;;;;;;;7.47;1.77;;;18.10;76.40;;;;;;4993409;28;20429;-71
2022/09/09 10:29:59;;;;;;;4.60;1.70;;;18.20;76.50;;;;;;5012172;28;20356;-71
2022/09/09 10:32:38;;;;;;;6.80;1.85;;;18.20;76.60;;;;;;5012097;28;20058;-71
2022/09/09 10:35:11;;;;;;;7.20;1.98;;;18.20;76.60;;;;;;5012017;28;20062;-71
2022/09/09 10:37:47;;;;;;;5.95;2.10;;;18.20;76.50;;;;;;4993822;28;20136;-71
2022/09/09 10:40:29;;;;;;;8.07;1.97;;;18.30;76.60;;;;;;5011513;28;20168;-71
2022/09/09 10:43:06;;;;;;;7.65;1.95;;;18.40;76.40;;;;;;5012748;28;20274;-71
2022/09/09 10:45:42;;;;;;;5.90;1.50;;;18.40;75.90;;;;;;5012867;28;20066;-71
2022/09/09 10:48:27;;;;;;;9.48;1.92;;;18.50;75.80;;;;;;4995266;28;20116;-71
2022/09/09 10:51:03;;;;;;;7.10;1.75;;;18.60;75.40;;;;;;4978002;28;20997;-71
2022/09/09 10:53:38;;;;;;;6.13;1.70;;;18.60;75.00;;;;;;5013263;28;20058;-71
2022/09/09 10:56:09;;;;;;;6.82;1.75;;;18.60;74.80;;;;;;4996756;28;20342;-71
2022/09/09 10:58:42;;;;;;;7.28;1.80;;;18.70;74.30;;;;;;4994154;28;20098;-70
2022/09/09 11:01:18;;;;;;;7.05;1.67;;;18.70;74.10;;;;;;5008370;28;20510;-71
2022/09/09 11:03:50;;;;;;;7.03;1.88;;;18.70;74.20;;;;;;4992984;28;20145;-71
2022/09/09 11:06:20;;;;;;;5.90;1.90;;;18.70;73.90;;;;;;4990103;28;20046;-71
2022/09/09 11:08:49;;;;;;;6.15;1.73;;;18.70;74.10;;;;;;4993990;28;21185;-71
2022/09/09 11:11:19;;;;;;;6.57;1.48;;;18.80;73.60;;;;;;4993632;28;20082;-71
2022/09/09 11:13:54;;;;;;;6.18;1.70;;;18.80;73.40;;;;;;4994302;28;20157;-71
2022/09/09 11:16:29;;;;;;;6.03;1.50;;;18.80;73.40;;;;;;4996342;28;20448;-70
2022/09/09 11:19:02;;;;;;;6.47;1.60;;;18.80;73.40;;;;;;5014141;28;20052;-70
2022/09/09 11:21:32;;;;;;;6.70;1.95;;;18.80;73.50;;;;;;4996466;28;20262;-71
2022/09/09 11:24:04;;;;;;;6.10;1.70;;;18.80;73.80;;;;;;5014196;28;20056;-71
2022/09/09 11:26:37;;;;;;;9.23;2.00;;;18.80;73.90;;;;;;4996645;28;20081;-71
2022/09/09 11:29:25;;;;;;;6.65;1.50;;;18.80;73.40;;;;;;5003483;28;20067;-70
2022/09/09 11:32:09;;;;;;;6.17;1.60;;;18.80;73.30;;;;;;4997889;28;20596;-71
2022/09/09 11:34:51;;;;;;;7.75;1.65;;;18.80;73.10;;;;;;5013030;28;20266;-71
2022/09/09 11:37:45;;;;;;;7.50;1.70;;;18.80;73.10;;;;;;5014602;28;20058;-71
2022/09/09 11:40:25;;;;;;;6.15;1.60;;;18.80;73.00;;;;;;4994625;28;20050;-70
2022/09/09 11:43:05;;;;;;;6.35;1.42;;;18.80;73.20;;;;;;4996111;28;20047;-70
2022/09/09 11:45:33;;;;;;;5.77;1.50;;;18.80;73.20;;;;;;5012318;28;20142;-71
2022/09/09 11:48:03;;;;;;;6.10;1.88;;;18.80;73.00;;;;;;4996105;28;20261;-71
2022/09/09 11:50:36;;;;;;;6.30;1.63;;;18.80;72.90;;;;;;4995263;28;20053;-71
2022/09/09 11:53:23;;;;;;;8.82;2.00;;;18.70;73.00;;;;;;5010882;28;20051;-71
2022/09/09 11:56:09;;;;;;;8.68;1.95;;;18.70;73.10;;;;;;4996077;28;20050;-70
2022/09/09 11:58:46;;;;;;;6.97;1.80;;;18.70;72.80;;;;;;5012419;28;20058;-71
2022/09/09 12:01:41;;;;;;;6.40;2.00;;;18.70;72.90;;;;;;4979331;28;20270;-70
2022/09/09 12:04:18;;;;;;;6.40;1.70;;;18.70;72.50;;;;;;4995591;28;20511;-71
2022/09/09 12:06:47;;;;;;;7.68;2.47;;;18.80;72.10;;;;;;5012839;28;20089;-70
2022/09/09 12:09:24;;;;;;;7.75;2.10;;;18.80;72.10;;;;;;5011149;28;20113;-70
2022/09/09 12:11:52;;;;;;;5.77;1.60;;;18.90;71.60;;;;;;4995699;28;20050;-71
2022/09/09 12:14:24;;;;;;;7.93;1.85;;;18.90;71.80;;;;;;4996707;28;20325;-70
2022/09/09 12:16:51;;;;;;;5.10;1.77;;;18.90;71.70;;;;;;5013006;28;20142;-70
2022/09/09 12:19:23;;;;;;;6.97;1.65;;;19.00;72.00;;;;;;4995911;28;20051;-70
2022/09/09 12:22:00;;;;;;;5.10;1.48;;;19.00;72.50;;;;;;5012748;28;20070;-71
2022/09/09 12:24:34;;;;;;;8.93;1.67;;;19.00;72.60;;;;;;4994162;28;20050;-71
2022/09/09 12:27:07;;;;;;;5.22;1.40;;;19.10;72.00;;;;;;4994997;28;20763;-71
2022/09/09 12:29:44;;;;;;;7.68;1.70;;;19.10;71.60;;;;;;5012666;28;20042;-70
2022/09/09 12:32:16;;;;;;;4.55;1.40;;;19.20;71.20;;;;;;5002457;28;20788;-70
2022/09/09 12:34:49;;;;;;;6.57;1.50;;;19.20;70.80;;;;;;5031498;28;20058;-70
2022/09/09 12:37:24;;;;;;;5.63;1.30;;;19.20;71.20;;;;;;5032546;28;20058;-71
2022/09/09 12:39:55;;;;;;;4.72;1.70;;;19.20;71.60;;;;;;5033475;28;20258;-70
2022/09/09 12:42:23;;;;;;;5.10;1.40;;;19.20;71.60;;;;;;5016384;28;20064;-70
2022/09/09 12:44:55;;;;;;;5.25;1.50;;;19.30;71.00;;;;;;5032626;28;20050;-70
2022/09/09 12:47:26;;;;;;;5.50;1.55;;;19.40;70.10;;;;;;5016078;28;20504;-71
2022/09/09 12:49:56;;;;;;;4.43;1.10;;;19.40;69.50;;;;;;5032068;28;20052;-71
2022/09/09 12:52:30;;;;;;;6.03;1.50;;;19.40;69.40;;;;;;5032449;28;20360;-70
2022/09/09 12:54:59;;;;;;;4.93;1.67;;;19.40;69.80;;;;;;5033088;28;20057;-71
2022/09/09 12:57:35;;;;;;;5.95;1.65;;;19.40;70.90;;;;;;5033362;28;20141;-71
2022/09/09 13:00:15;;;;;;;9.07;1.80;;;19.40;71.80;;;;;;5031571;28;20054;-71
2022/09/09 13:02:51;;;;;;;6.10;1.53;;;19.40;73.10;;;;;;5033272;28;20075;-71
2022/09/09 13:05:22;;;;;;;5.30;1.35;;;19.40;74.60;;;;;;5015439;28;20304;-71
2022/09/09 13:07:49;;;;;;;5.95;1.50;;;19.50;74.50;;;;;;5015235;28;20057;-71
2022/09/09 13:10:23;;;;;;;4.90;1.40;;;19.50;74.40;;;;;;5032901;28;20388;-71
2022/09/09 13:12:50;;;;;;;4.65;1.30;;;19.50;74.30;;;;;;5015553;28;20050;-71